createdAt,value
2018-11-10T00:00:02.923Z,12.68
2018-11-10T00:02:31.034Z,14.05
2018-11-10T00:04:59.171Z,13.13
2018-11-10T00:07:32.496Z,14.25
2018-11-10T00:10:05.258Z,13.05
2018-11-10T00:12:33.154Z,15.10
2018-11-10T00:15:06.798Z,14.23
2018-11-10T00:17:34.266Z,13.68
2018-11-10T00:20:02.043Z,15.55
2018-11-10T00:22:30.540Z,15.68
2018-11-10T00:24:58.506Z,16.12
2018-11-10T00:27:26.646Z,17.15
2018-11-10T00:29:54.022Z,18.48
2018-11-10T00:32:25.496Z,18.00
2018-11-10T00:34:53.590Z,17.95
2018-11-10T00:37:20.939Z,17.87
2018-11-10T00:39:50.378Z,16.97
2018-11-10T00:42:18.899Z,17.98
2018-11-10T00:44:46.416Z,17.85
2018-11-10T00:47:14.021Z,18.17
2018-11-10T00:49:41.578Z,18.87
2018-11-10T00:52:09.114Z,18.60
2018-11-10T00:54:37.015Z,17.98
2018-11-10T00:57:04.516Z,18.82
2018-11-10T00:59:31.912Z,19.20
2018-11-10T01:01:59.254Z,21.05
2018-11-10T01:04:27.236Z,20.08
2018-11-10T01:06:58.638Z,19.95
2018-11-10T01:09:26.940Z,20.50
2018-11-10T01:11:54.774Z,19.95
2018-11-10T01:14:22.309Z,21.00
2018-11-10T01:16:49.690Z,20.40
2018-11-10T01:19:17.062Z,19.62
2018-11-10T01:21:44.719Z,20.95
2018-11-10T01:24:18.995Z,21.40
2018-11-10T01:26:46.474Z,19.10
2018-11-10T01:29:16.069Z,21.62
2018-11-10T01:31:43.575Z,20.92
2018-11-10T01:34:10.987Z,20.70
2018-11-10T01:36:38.323Z,19.25
2018-11-10T01:39:07.104Z,22.02
2018-11-10T01:41:34.853Z,18.73
2018-11-10T01:44:02.822Z,18.30
2018-11-10T01:46:30.270Z,19.50
2018-11-10T01:48:57.766Z,18.60
2018-11-10T01:51:25.144Z,19.32
2018-11-10T01:53:52.503Z,18.98
2018-11-10T01:56:19.949Z,20.23
2018-11-10T01:58:47.725Z,18.30
2018-11-10T02:01:15.994Z,17.20
2018-11-10T02:03:48.064Z,16.95
2018-11-10T02:06:15.799Z,18.67
2018-11-10T02:08:43.530Z,16.35
2018-11-10T02:11:10.951Z,17.50
2018-11-10T02:13:38.462Z,18.07
2018-11-10T02:16:05.818Z,17.15
2018-11-10T02:18:38.226Z,15.40
2018-11-10T02:21:06.437Z,16.52
2018-11-10T02:23:34.266Z,14.30
2018-11-10T02:26:01.755Z,13.60
2018-11-10T02:28:29.143Z,13.45
2018-11-10T02:30:56.546Z,15.13
2018-11-10T02:33:23.886Z,13.32
2018-11-10T02:35:52.298Z,13.45
2018-11-10T02:38:20.395Z,12.00
2018-11-10T02:40:49.299Z,12.50
2018-11-10T02:43:16.997Z,13.05
2018-11-10T02:45:44.392Z,12.20
2018-11-10T02:48:11.757Z,13.40
2018-11-10T02:50:39.188Z,13.83
2018-11-10T02:53:06.565Z,13.35
2018-11-10T02:55:40.341Z,12.53
2018-11-10T02:58:08.469Z,13.72
2018-11-10T03:00:37.262Z,13.48
2018-11-10T03:03:05.598Z,15.25
2018-11-10T03:05:32.978Z,14.70
2018-11-10T03:08:00.452Z,13.58
2018-11-10T03:10:27.900Z,17.05
2018-11-10T03:12:55.393Z,15.83
2018-11-10T03:15:22.808Z,14.28
2018-11-10T03:17:50.196Z,14.53
2018-11-10T03:20:18.250Z,13.83
2018-11-10T03:22:46.032Z,14.50
2018-11-10T03:25:14.124Z,12.75
2018-11-10T03:27:42.578Z,13.30
2018-11-10T03:30:10.174Z,12.90
2018-11-10T03:32:38.307Z,12.33
2018-11-10T03:35:06.610Z,12.80
2018-11-10T03:37:34.543Z,12.10
2018-11-10T03:40:06.491Z,11.30
2018-11-10T03:42:33.918Z,11.18
2018-11-10T03:45:02.678Z,9.35
2018-11-10T03:47:30.315Z,10.05
2018-11-10T03:49:57.707Z,8.80
2018-11-10T03:52:25.158Z,9.23
2018-11-10T03:54:53.046Z,8.68
2018-11-10T03:57:20.407Z,10.03
2018-11-10T03:59:49.135Z,8.25
2018-11-10T04:02:18.095Z,8.75
2018-11-10T04:04:50.638Z,8.53
2018-11-10T04:07:17.965Z,7.78
2018-11-10T04:09:45.441Z,7.80
2018-11-10T04:12:13.403Z,8.40
2018-11-10T04:14:40.893Z,8.58
2018-11-10T04:17:08.778Z,8.13
2018-11-10T04:19:40.488Z,6.50
2018-11-10T04:22:08.218Z,7.28
2018-11-10T04:24:35.601Z,7.67
2018-11-10T04:27:02.985Z,7.92
2018-11-10T04:29:30.422Z,7.50
2018-11-10T04:31:58.134Z,7.55
2018-11-10T04:34:25.605Z,7.30
2018-11-10T04:36:52.927Z,7.20
2018-11-10T04:39:20.330Z,7.35
2018-11-10T04:41:47.734Z,6.95
2018-11-10T04:44:15.154Z,7.78
2018-11-10T04:46:42.634Z,6.72
2018-11-10T04:49:10.689Z,6.35
2018-11-10T04:51:38.562Z,7.25
2018-11-10T04:54:05.953Z,7.67
2018-11-10T04:56:34.833Z,6.85
2018-11-10T04:59:02.673Z,6.75
2018-11-10T05:01:30.164Z,7.47
2018-11-10T05:03:58.151Z,6.70
2018-11-10T05:06:25.590Z,7.15
2018-11-10T05:08:53.095Z,7.47
2018-11-10T05:11:20.800Z,7.12
2018-11-10T05:13:48.782Z,5.90
2018-11-10T05:16:16.745Z,7.37
2018-11-10T05:18:49.032Z,6.40
2018-11-10T05:21:16.380Z,9.10
2018-11-10T05:23:43.733Z,6.15
2018-11-10T05:26:11.123Z,6.30
2018-11-10T05:28:39.106Z,8.18
2018-11-10T05:31:06.636Z,6.45
2018-11-10T05:33:38.787Z,5.90
2018-11-10T05:36:06.214Z,6.40
2018-11-10T05:38:34.018Z,5.75
2018-11-10T05:41:01.436Z,5.70
2018-11-10T05:43:28.943Z,6.65
2018-11-10T05:45:56.336Z,5.47
2018-11-10T05:48:23.734Z,6.00
2018-11-10T05:50:51.091Z,5.45
2018-11-10T05:53:18.884Z,6.37
2018-11-10T05:55:50.188Z,6.10
2018-11-10T05:58:18.238Z,5.62
2018-11-10T06:00:46.295Z,6.85
2018-11-10T06:03:13.640Z,6.70
2018-11-10T06:05:40.979Z,6.65
2018-11-10T06:08:08.290Z,6.03
2018-11-10T06:10:35.616Z,6.30
2018-11-10T06:13:03.175Z,5.75
2018-11-10T06:15:30.509Z,5.85
2018-11-10T06:17:57.863Z,5.70
2018-11-10T06:20:25.702Z,5.30
2018-11-10T06:22:53.009Z,4.90
2018-11-10T06:25:20.363Z,4.70
2018-11-10T06:27:47.616Z,3.80
2018-11-10T06:30:14.900Z,3.90
2018-11-10T06:32:42.236Z,4.67
2018-11-10T06:35:10.126Z,4.42
2018-11-10T06:37:37.414Z,5.05
2018-11-10T06:40:05.586Z,4.72
2018-11-10T06:42:32.877Z,4.05
2018-11-10T06:45:00.157Z,3.58
2018-11-10T06:47:27.398Z,3.52
2018-11-10T06:49:54.694Z,4.35
2018-11-10T06:52:21.966Z,4.30
2018-11-10T06:54:49.207Z,3.98
2018-11-10T06:57:16.471Z,4.08
2018-11-10T06:59:43.722Z,4.50
2018-11-10T07:02:11.035Z,3.35
2018-11-10T07:04:38.596Z,4.65
2018-11-10T07:07:05.992Z,4.03
2018-11-10T07:09:33.382Z,4.70
2018-11-10T07:12:00.524Z,4.60
2018-11-10T07:14:27.804Z,4.33
2018-11-10T07:16:55.109Z,3.40
2018-11-10T07:19:22.463Z,4.40
2018-11-10T07:21:49.729Z,4.50
2018-11-10T07:24:17.027Z,4.20
2018-11-10T07:26:44.334Z,5.20
2018-11-10T07:29:11.634Z,4.83
2018-11-10T07:31:38.946Z,5.70
2018-11-10T07:34:06.254Z,4.37
2018-11-10T07:36:33.558Z,5.15
2018-11-10T07:39:00.881Z,5.20
2018-11-10T07:41:28.210Z,4.67
2018-11-10T07:43:55.504Z,4.12
2018-11-10T07:46:22.782Z,6.28
2018-11-10T07:48:50.093Z,5.75
2018-11-10T07:51:17.471Z,6.10
2018-11-10T07:53:44.718Z,6.12
2018-11-10T07:56:12.008Z,5.15
2018-11-10T07:58:39.297Z,5.70
2018-11-10T08:01:06.836Z,5.90
2018-11-10T08:03:36.046Z,5.55
2018-11-10T08:06:03.898Z,6.45
2018-11-10T08:08:31.191Z,6.65
2018-11-10T08:10:58.501Z,6.35
2018-11-10T08:13:25.960Z,5.55
2018-11-10T08:15:53.281Z,5.67
2018-11-10T08:18:20.576Z,6.90
2018-11-10T08:20:47.895Z,6.33
2018-11-10T08:23:15.181Z,6.50
2018-11-10T08:25:42.477Z,6.30
2018-11-10T08:28:09.782Z,6.45
2018-11-10T08:30:37.118Z,5.92
2018-11-10T08:33:04.827Z,7.78
2018-11-10T08:35:32.136Z,7.45
2018-11-10T08:37:59.422Z,7.72
2018-11-10T08:40:26.841Z,6.80
2018-11-10T08:42:54.168Z,8.13
2018-11-10T08:45:21.447Z,7.15
2018-11-10T08:47:48.729Z,6.92
2018-11-10T08:50:16.743Z,7.22
2018-11-10T08:52:44.045Z,7.70
2018-11-10T08:55:12.363Z,7.17
2018-11-10T08:57:40.053Z,6.97
2018-11-10T09:00:07.927Z,7.30
2018-11-10T09:02:35.250Z,6.95
2018-11-10T09:05:02.548Z,6.90
2018-11-10T09:07:30.080Z,6.87
2018-11-10T09:09:57.441Z,6.30
2018-11-10T09:12:24.714Z,6.70
2018-11-10T09:14:52.023Z,7.47
2018-11-10T09:17:19.301Z,6.20
2018-11-10T09:19:46.569Z,7.22
2018-11-10T09:22:13.887Z,7.75
2018-11-10T09:24:41.197Z,7.17
2018-11-10T09:27:08.478Z,6.45
2018-11-10T09:29:35.796Z,7.65
2018-11-10T09:32:03.210Z,6.75
2018-11-10T09:34:30.625Z,6.30
2018-11-10T09:36:57.940Z,7.00
2018-11-10T09:39:25.256Z,5.83
2018-11-10T09:41:52.581Z,5.22
2018-11-10T09:44:19.828Z,5.58
2018-11-10T09:46:47.136Z,5.17
2018-11-10T09:49:14.491Z,5.10
2018-11-10T09:51:41.793Z,4.53
2018-11-10T09:54:09.354Z,4.12
2018-11-10T09:56:36.646Z,4.67
2018-11-10T09:59:04.054Z,4.67
2018-11-10T10:01:31.467Z,4.20
2018-11-10T10:03:58.723Z,3.70
2018-11-10T10:06:26.063Z,3.85
2018-11-10T10:08:53.496Z,3.95
2018-11-10T10:11:20.668Z,4.25
2018-11-10T10:13:47.986Z,4.80
2018-11-10T10:16:15.495Z,3.95
2018-11-10T10:18:42.682Z,4.30
2018-11-10T10:21:09.950Z,4.35
2018-11-10T10:23:37.690Z,4.10
2018-11-10T10:26:05.024Z,4.10
2018-11-10T10:28:32.418Z,4.17
2018-11-10T10:30:59.634Z,4.53
2018-11-10T10:33:26.934Z,4.67
2018-11-10T10:35:54.215Z,4.58
2018-11-10T10:38:21.595Z,4.83
2018-11-10T10:40:48.926Z,5.78
2018-11-10T10:43:16.561Z,5.30
2018-11-10T10:45:43.867Z,4.53
2018-11-10T10:48:11.179Z,4.72
2018-11-10T10:50:38.789Z,5.17
2018-11-10T10:53:06.202Z,5.08
2018-11-10T10:55:33.977Z,4.90
2018-11-10T10:58:02.004Z,5.25
2018-11-10T11:00:34.710Z,5.17
2018-11-10T11:03:08.193Z,5.70
2018-11-10T11:05:40.907Z,4.78
2018-11-10T11:08:12.751Z,5.45
2018-11-10T11:10:41.018Z,5.12
2018-11-10T11:13:08.449Z,5.10
2018-11-10T11:15:36.394Z,5.20
2018-11-10T11:18:03.682Z,5.00
2018-11-10T11:20:31.636Z,5.95
2018-11-10T11:22:59.739Z,5.50
2018-11-10T11:25:28.278Z,5.00
2018-11-10T11:27:56.252Z,5.08
2018-11-10T11:30:23.617Z,5.30
2018-11-10T11:32:50.967Z,4.67
2018-11-10T11:35:19.220Z,4.75
2018-11-10T11:37:46.534Z,5.10
2018-11-10T11:40:14.441Z,5.22
2018-11-10T11:42:42.728Z,5.30
2018-11-10T11:45:11.147Z,5.17
2018-11-10T11:47:38.850Z,5.15
2018-11-10T11:50:12.204Z,5.10
2018-11-10T11:52:44.676Z,6.00
2018-11-10T11:55:13.473Z,4.97
2018-11-10T11:57:41.277Z,5.80
2018-11-10T12:00:10.904Z,5.40
2018-11-10T12:02:39.824Z,4.42
2018-11-10T12:05:08.424Z,4.47
2018-11-10T12:07:36.248Z,4.92
2018-11-10T12:10:09.437Z,4.92
2018-11-10T12:12:40.818Z,4.87
2018-11-10T12:15:13.985Z,4.67
2018-11-10T12:17:42.199Z,5.08
2018-11-10T12:20:11.320Z,4.12
2018-11-10T12:22:40.311Z,5.10
2018-11-10T12:25:09.883Z,4.22
2018-11-10T12:27:38.231Z,4.90
2018-11-10T12:30:10.434Z,4.80
2018-11-10T12:32:38.868Z,4.92
2018-11-10T12:35:06.870Z,4.20
2018-11-10T12:37:34.287Z,4.58
2018-11-10T12:40:02.050Z,4.87
2018-11-10T12:42:29.444Z,4.92
2018-11-10T12:44:56.810Z,4.33
2018-11-10T12:47:24.842Z,4.53
2018-11-10T12:49:56.927Z,4.30
2018-11-10T12:52:25.239Z,4.70
2018-11-10T12:57:21.800Z,5.00
2018-11-10T12:59:50.794Z,5.10
2018-11-10T13:02:18.186Z,5.40
2018-11-10T13:04:45.632Z,4.35
2018-11-10T13:07:13.161Z,5.10
2018-11-10T13:09:40.409Z,5.25
2018-11-10T13:12:07.774Z,5.50
2018-11-10T13:14:35.031Z,5.12
2018-11-10T13:17:02.348Z,5.17
2018-11-10T13:19:29.621Z,5.12
2018-11-10T13:21:56.948Z,4.28
2018-11-10T13:24:24.323Z,4.83
2018-11-10T13:26:52.022Z,5.20
2018-11-10T13:29:19.357Z,4.25
2018-11-10T13:31:46.679Z,4.45
2018-11-10T13:34:13.943Z,4.22
2018-11-10T13:36:41.355Z,4.17
2018-11-10T13:39:09.373Z,4.10
2018-11-10T13:41:36.666Z,4.65
2018-11-10T13:44:04.091Z,3.67
2018-11-10T13:46:31.371Z,3.80
2018-11-10T13:48:58.682Z,3.83
2018-11-10T13:51:26.074Z,4.20
2018-11-10T13:53:53.404Z,4.85
2018-11-10T13:56:20.687Z,4.00
2018-11-10T13:58:48.068Z,4.12
2018-11-10T14:01:15.421Z,4.30
2018-11-10T14:03:43.011Z,4.60
2018-11-10T14:06:10.348Z,4.65
2018-11-10T14:08:37.672Z,3.90
2018-11-10T14:11:05.112Z,4.87
2018-11-10T14:13:32.444Z,5.22
2018-11-10T14:15:59.802Z,5.10
2018-11-10T14:18:27.192Z,4.87
2018-11-10T14:20:54.750Z,4.83
2018-11-10T14:23:22.115Z,4.20
2018-11-10T14:25:54.054Z,4.60
2018-11-10T14:28:21.510Z,4.40
2018-11-10T14:30:48.928Z,4.87
2018-11-10T14:33:16.246Z,4.92
2018-11-10T14:35:43.557Z,5.45
2018-11-10T14:38:10.940Z,5.00
2018-11-10T14:40:38.326Z,4.80
2018-11-10T14:43:05.759Z,5.47
2018-11-10T14:45:33.134Z,5.37
2018-11-10T14:48:01.075Z,5.65
2018-11-10T14:50:28.762Z,5.92
2018-11-10T14:52:56.393Z,6.40
2018-11-10T14:55:23.827Z,5.20
2018-11-10T14:57:51.178Z,6.10
2018-11-10T15:00:25.397Z,5.65
2018-11-10T15:02:52.819Z,6.00
2018-11-10T15:05:20.211Z,6.45
2018-11-10T15:07:47.538Z,5.95
2018-11-10T15:10:15.869Z,6.37
2018-11-10T15:12:43.884Z,5.50
2018-11-10T15:15:12.073Z,6.20
2018-11-10T15:17:39.940Z,5.65
2018-11-10T15:20:08.304Z,6.00
2018-11-10T15:22:36.033Z,6.78
2018-11-10T15:25:03.369Z,6.05
2018-11-10T15:27:30.767Z,7.10
2018-11-10T15:29:58.098Z,7.75
2018-11-10T15:32:26.251Z,6.92
2018-11-10T15:34:53.615Z,7.20
2018-11-10T15:37:20.976Z,6.22
2018-11-10T15:39:48.378Z,5.37
2018-11-10T15:42:16.487Z,6.53
2018-11-10T15:44:43.802Z,6.90
2018-11-10T15:47:11.098Z,6.17
2018-11-10T15:49:38.429Z,7.10
2018-11-10T15:52:05.766Z,5.87
2018-11-10T15:54:33.104Z,7.15
2018-11-10T15:57:00.510Z,6.35
2018-11-10T15:59:27.827Z,5.72
2018-11-10T16:01:55.192Z,7.00
2018-11-10T16:04:22.533Z,6.10
2018-11-10T16:06:49.871Z,6.05
2018-11-10T16:09:17.211Z,5.92
2018-11-10T16:11:44.468Z,6.40
2018-11-10T16:14:11.814Z,5.72
2018-11-10T16:16:39.150Z,5.10
2018-11-10T16:19:06.660Z,5.95
2018-11-10T16:21:33.967Z,5.80
2018-11-10T16:24:01.391Z,5.15
2018-11-10T16:26:28.736Z,5.45
2018-11-10T16:28:56.363Z,5.33
2018-11-10T16:31:23.974Z,5.33
2018-11-10T16:33:51.302Z,4.37
2018-11-10T16:36:18.596Z,4.70
2018-11-10T16:38:45.918Z,5.10
2018-11-10T16:41:13.195Z,5.47
2018-11-10T16:43:40.492Z,4.87
2018-11-10T16:46:07.927Z,5.35
2018-11-10T16:48:35.243Z,5.70
2018-11-10T16:51:02.631Z,5.03
2018-11-10T16:53:29.935Z,5.03
2018-11-10T16:55:57.319Z,5.30
2018-11-10T16:58:24.623Z,4.90
2018-11-10T17:00:51.947Z,4.80
2018-11-10T17:03:19.265Z,4.70
2018-11-10T17:05:46.541Z,4.85
2018-11-10T17:08:13.848Z,5.50
2018-11-10T17:10:41.142Z,4.55
2018-11-10T17:13:08.554Z,5.40
2018-11-10T17:15:35.926Z,5.20
2018-11-10T17:18:03.148Z,4.17
2018-11-10T17:20:30.485Z,5.20
2018-11-10T17:22:57.812Z,4.67
2018-11-10T17:25:25.161Z,4.60
2018-11-10T17:27:52.518Z,4.87
2018-11-10T17:30:21.057Z,5.28
2018-11-10T17:32:48.354Z,4.75
2018-11-10T17:35:15.793Z,5.58
2018-11-10T17:37:43.295Z,5.90
2018-11-10T17:40:11.572Z,5.03
2018-11-10T17:42:38.934Z,5.35
2018-11-10T17:45:06.901Z,5.03
2018-11-10T17:47:35.515Z,4.92
2018-11-10T17:50:04.152Z,4.97
2018-11-10T17:52:32.039Z,4.60
2018-11-10T17:55:00.138Z,4.90
2018-11-10T17:57:27.462Z,4.70
2018-11-10T17:59:54.819Z,4.53
2018-11-10T18:02:22.288Z,4.17
2018-11-10T18:04:50.480Z,4.80
2018-11-10T18:07:19.197Z,5.08
2018-11-10T18:09:46.708Z,4.78
2018-11-10T18:12:18.883Z,4.00
2018-11-10T18:17:13.910Z,4.22
2018-11-10T18:19:41.282Z,4.70
2018-11-10T18:22:09.191Z,3.87
2018-11-10T18:24:36.642Z,4.33
2018-11-10T18:27:05.070Z,4.90
2018-11-10T18:29:32.573Z,5.10
2018-11-10T18:32:00.142Z,5.03
2018-11-10T18:36:58.750Z,4.42
2018-11-10T18:39:26.315Z,4.42
2018-11-10T18:41:53.723Z,4.55
2018-11-10T18:44:21.089Z,4.22
2018-11-10T18:46:49.055Z,4.53
2018-11-10T18:49:17.425Z,4.33
2018-11-10T18:51:45.207Z,4.20
2018-11-10T18:54:18.082Z,4.47
2018-11-10T18:56:47.186Z,4.90
2018-11-10T18:59:19.525Z,4.25
2018-11-10T19:01:46.936Z,3.90
2018-11-10T19:04:14.487Z,4.55
2018-11-10T19:06:42.859Z,4.50
2018-11-10T19:09:15.179Z,4.30
2018-11-10T19:11:42.642Z,4.80
2018-11-10T19:14:10.804Z,4.35
2018-11-10T19:16:38.366Z,3.72
2018-11-10T19:19:06.236Z,3.62
2018-11-10T19:21:34.719Z,3.80
2018-11-10T19:24:02.228Z,4.30
2018-11-10T19:26:31.735Z,4.10
2018-11-10T19:28:59.202Z,3.67
2018-11-10T19:31:28.457Z,3.90
2018-11-10T19:33:57.934Z,3.75
2018-11-10T19:36:30.947Z,3.10
2018-11-10T19:38:58.483Z,3.35
2018-11-10T19:41:25.903Z,3.10
2018-11-10T19:43:53.952Z,3.62
2018-11-10T19:46:22.115Z,3.00
2018-11-10T19:48:50.068Z,3.47
2018-11-10T19:51:17.579Z,3.05
2018-11-10T19:53:44.995Z,3.70
2018-11-10T19:56:12.913Z,3.83
2018-11-10T19:58:40.512Z,3.20
2018-11-10T20:01:09.522Z,4.03
2018-11-10T20:03:41.978Z,3.92
2018-11-10T20:06:09.977Z,4.08
2018-11-10T20:08:37.510Z,3.37
2018-11-10T20:11:06.992Z,4.30
2018-11-10T20:13:34.469Z,3.90
2018-11-10T20:16:01.904Z,4.00
2018-11-10T20:18:33.922Z,3.85
2018-11-10T20:21:01.362Z,4.08
2018-11-10T20:23:33.329Z,3.98
2018-11-10T20:26:01.302Z,4.17
2018-11-10T20:28:30.833Z,4.33
2018-11-10T20:31:07.545Z,4.85
2018-11-10T20:33:40.074Z,4.95
2018-11-10T20:36:07.598Z,4.90
2018-11-10T20:38:35.012Z,4.80
2018-11-10T20:41:02.446Z,5.30
2018-11-10T20:43:29.900Z,5.40
2018-11-10T20:45:57.375Z,4.85
2018-11-10T20:48:28.947Z,5.08
2018-11-10T20:50:56.453Z,5.12
2018-11-10T20:53:27.983Z,6.10
2018-11-10T20:55:55.384Z,5.17
2018-11-10T20:58:23.499Z,5.50
2018-11-10T21:00:55.488Z,4.83
2018-11-10T21:03:27.031Z,5.78
2018-11-10T21:05:54.699Z,5.90
2018-11-10T21:08:22.170Z,5.47
2018-11-10T21:10:49.906Z,5.90
2018-11-10T21:13:17.341Z,6.25
2018-11-10T21:15:45.397Z,7.12
2018-11-10T21:18:17.776Z,5.58
2018-11-10T21:20:45.229Z,6.60
2018-11-10T21:23:13.383Z,6.28
2018-11-10T21:25:40.778Z,6.53
2018-11-10T21:28:12.963Z,8.03
2018-11-10T21:30:40.415Z,7.50
2018-11-10T21:33:07.828Z,7.50
2018-11-10T21:35:35.436Z,7.30
2018-11-10T21:38:02.781Z,6.40
2018-11-10T21:40:30.514Z,7.80
2018-11-10T21:42:57.865Z,6.58
2018-11-10T21:45:25.281Z,6.97
2018-11-10T21:47:57.437Z,7.60
2018-11-10T21:50:24.816Z,6.92
2018-11-10T21:52:53.111Z,5.87
2018-11-10T21:55:21.646Z,6.75
2018-11-10T21:57:49.607Z,5.95
2018-11-10T22:00:18.795Z,5.37
2018-11-10T22:02:50.815Z,7.75
2018-11-10T22:05:19.196Z,6.05
2018-11-10T22:07:46.644Z,6.67
2018-11-10T22:10:15.490Z,6.60
2018-11-10T22:15:18.011Z,5.80
2018-11-10T22:17:46.827Z,5.95
2018-11-10T22:20:16.145Z,6.58
2018-11-10T22:22:43.582Z,5.92
2018-11-10T22:25:11.768Z,6.72
2018-11-10T22:27:40.453Z,5.70
2018-11-10T22:30:08.495Z,6.33
2018-11-10T22:32:35.828Z,6.53
2018-11-10T22:35:03.223Z,6.53
2018-11-10T22:37:30.664Z,5.75
2018-11-10T22:39:58.091Z,6.70
2018-11-10T22:42:25.625Z,5.65
2018-11-10T22:44:52.949Z,6.15
2018-11-10T22:47:24.995Z,6.00
2018-11-10T22:49:52.888Z,6.35
2018-11-10T22:52:21.366Z,5.95
2018-11-10T22:54:48.904Z,5.60
2018-11-10T22:57:18.383Z,5.80
2018-11-10T22:59:45.800Z,5.75
2018-11-10T23:02:14.879Z,5.47
2018-11-10T23:04:42.363Z,5.97
2018-11-10T23:07:09.748Z,5.28
2018-11-10T23:09:37.515Z,5.67
2018-11-10T23:12:05.774Z,5.22
2018-11-10T23:14:33.485Z,5.78
2018-11-10T23:17:00.954Z,5.42
2018-11-10T23:19:28.273Z,5.65
2018-11-10T23:21:57.739Z,5.65
2018-11-10T23:24:25.193Z,4.87
2018-11-10T23:26:53.232Z,5.10
2018-11-10T23:29:22.339Z,4.95
2018-11-10T23:31:49.820Z,4.75
2018-11-10T23:34:17.221Z,4.85
2018-11-10T23:36:50.033Z,4.92
2018-11-10T23:39:17.453Z,5.17
2018-11-10T23:41:44.821Z,5.05
2018-11-10T23:44:13.163Z,4.62
2018-11-10T23:46:40.802Z,4.50
2018-11-10T23:49:09.470Z,4.55
2018-11-10T23:51:37.478Z,4.50
2018-11-10T23:54:04.910Z,4.20
2018-11-10T23:56:32.222Z,3.85
2018-11-10T23:59:04.687Z,4.60
